Time;durP1;ratioP1;P1;durP2;ratioP2;P2;SDS_P1;SDS_P2;PMS_P1;PMS_P2;Temp;Humidity;BMP_temperature;BMP_pressure;BME280_temperature;BME280_humidity;BME280_pressure;Samples;Min_cycle;Max_cycle;Signal;HPM_P1;HPM_P2
2022/05/28 00:01:19;;;;;;;6.97;1.87;;;13.10;69.70;;;15.94;52.96;101538.50;4992418;28;20214;-61
2022/05/28 00:03:48;;;;;;;5.67;1.70;;;13.10;70.00;;;15.92;53.06;101543.16;4906085;29;20231;-61
2022/05/28 00:06:14;;;;;;;2.53;1.43;;;13.10;69.80;;;15.89;52.72;101538.22;4818181;29;20238;-62
2022/05/28 00:11:21;;;;;;;5.10;1.93;;;13.00;68.90;;;15.84;52.50;101539.81;5172393;27;20642;-62
2022/05/28 00:13:52;;;;;;;5.17;1.73;;;13.00;69.20;;;15.83;52.82;101525.69;5114616;28;20199;-61
2022/05/28 00:16:20;;;;;;;5.33;1.50;;;13.00;69.60;;;15.82;52.93;101526.72;5098829;28;20237;-64
2022/05/28 00:18:49;;;;;;;6.47;2.10;;;13.00;69.80;;;15.82;53.47;101525.91;5062617;28;20193;-61
2022/05/28 00:21:16;;;;;;;7.43;2.03;;;13.00;70.20;;;15.82;53.18;101531.22;5069515;28;20196;-60
2022/05/28 00:23:45;;;;;;;3.03;1.73;;;13.00;70.20;;;15.83;53.29;101530.22;5087321;28;20197;-61
2022/05/28 00:26:14;;;;;;;6.03;2.37;;;13.00;70.30;;;15.81;53.21;101522.41;5077040;28;20219;-63
2022/05/28 00:32:23;;;;;;;5.87;1.60;;;12.90;70.10;;;15.81;53.56;101521.63;5161801;27;20627;-61
2022/05/28 00:34:50;;;;;;;5.63;1.90;;;13.00;70.50;;;15.81;53.81;101525.06;5146693;27;20211;-64
2022/05/28 00:37:16;;;;;;;5.13;2.10;;;12.90;70.60;;;15.82;53.49;101521.41;5130357;28;20488;-61
2022/05/28 00:39:43;;;;;;;8.50;2.27;;;13.00;70.80;;;15.81;53.24;101514.44;5147269;27;20205;-62
2022/05/28 00:42:09;;;;;;;4.23;1.80;;;12.90;70.60;;;15.79;53.46;101516.47;5096765;27;20647;-62
2022/05/28 00:44:36;;;;;;;3.23;1.50;;;12.90;70.70;;;15.77;53.64;101518.50;5035393;28;20650;-62
2022/05/28 00:47:04;;;;;;;10.67;1.70;;;12.90;70.80;;;15.77;53.74;101518.50;5078801;28;20633;-61
2022/05/28 00:52:13;;;;;;;4.80;1.97;;;12.90;71.00;;;15.72;53.97;101518.25;5165598;27;20647;-62
2022/05/28 00:54:46;;;;;;;7.57;1.80;;;12.90;71.50;;;15.69;54.04;101523.91;5127693;28;20222;-62
2022/05/28 00:57:15;;;;;;;6.03;1.83;;;12.80;71.50;;;15.68;54.11;101519.63;5096846;28;20494;-61
2022/05/28 00:59:45;;;;;;;6.03;2.40;;;12.80;71.90;;;15.66;54.65;101526.97;5106779;28;20192;-61
2022/05/28 01:02:36;;;;;;;10.37;1.80;;;12.80;72.20;;;15.58;54.80;101524.44;5012432;28;20235;-61
2022/05/28 01:05:13;;;;;;;5.70;2.30;;;12.80;72.70;;;15.58;55.26;101524.44;4949838;28;20220;-61
2022/05/28 01:07:52;;;;;;;6.80;3.33;;;12.70;73.00;;;15.55;55.30;101522.13;4741816;29;20216;-62
2022/05/28 01:10:21;;;;;;;5.17;1.83;;;12.70;73.30;;;15.53;55.22;101524.16;4779575;29;20298;-62
2022/05/28 01:15:31;;;;;;;8.17;2.57;;;12.70;73.30;;;15.52;55.51;101517.22;5153487;27;20406;-62
2022/05/28 01:18:11;;;;;;;5.80;2.10;;;12.70;73.60;;;15.50;55.61;101516.56;5119259;28;20187;-62
2022/05/28 01:20:43;;;;;;;10.97;2.40;;;12.70;74.40;;;15.54;55.45;101512.56;5069871;28;20638;-61
2022/05/28 01:23:31;;;;;;;8.27;2.13;;;12.70;73.60;;;15.50;55.45;101511.25;5041369;28;20315;-62
2022/05/28 01:26:12;;;;;;;6.20;1.80;;;12.70;73.40;;;15.50;55.33;101511.25;5009378;28;20226;-61
2022/05/28 01:28:47;;;;;;;5.10;1.77;;;12.70;73.40;;;15.51;55.34;101513.75;4946363;28;20202;-66
2022/05/28 01:31:17;;;;;;;7.43;2.60;;;12.60;73.20;;;15.54;55.40;101507.25;4852117;29;20278;-63
2022/05/28 01:33:46;;;;;;;8.87;2.30;;;12.70;73.00;;;15.54;54.96;101507.25;4832928;29;20241;-61
2022/05/28 01:38:55;;;;;;;5.07;2.13;;;12.70;72.30;;;15.53;54.51;101505.59;5171074;27;20646;-61
2022/05/28 01:41:25;;;;;;;9.13;2.73;;;12.70;71.80;;;15.55;54.36;101514.19;5129225;27;20649;-61
2022/05/28 01:43:56;;;;;;;7.47;1.93;;;12.70;71.40;;;15.55;53.80;101503.56;5112509;28;20202;-62
2022/05/28 01:46:27;;;;;;;7.53;1.80;;;12.70;70.70;;;15.56;53.40;101510.53;5110788;28;20517;-64
2022/05/28 01:48:56;;;;;;;10.57;2.13;;;12.70;70.10;;;15.54;53.24;101504.59;5077146;28;20512;-63
2022/05/28 01:51:32;;;;;;;8.17;1.83;;;12.70;70.10;;;15.55;53.21;101503.56;5092250;28;20195;-62
2022/05/28 01:54:13;;;;;;;7.73;2.67;;;12.70;69.70;;;15.55;52.94;101509.69;4983550;28;20226;-62
2022/05/28 01:56:42;;;;;;;6.90;2.00;;;12.70;69.20;;;15.55;52.80;101503.56;4663172;30;20235;-61
2022/05/28 02:01:47;;;;;;;7.87;2.50;;;12.70;69.20;;;15.57;52.26;101485.63;5171814;27;20637;-60
2022/05/28 02:04:14;;;;;;;6.80;2.07;;;12.70;68.50;;;15.55;52.43;101483.16;5150902;27;20207;-61
2022/05/28 02:06:43;;;;;;;5.80;2.33;;;12.70;68.50;;;15.56;52.17;101481.34;5135316;27;20210;-62
2022/05/28 02:09:15;;;;;;;7.40;2.03;;;12.70;68.30;;;15.55;52.06;101487.63;5143362;27;20552;-65
2022/05/28 02:12:01;;;;;;;9.00;1.87;;;12.70;68.20;;;15.51;52.10;101478.41;5089548;28;20212;-63
2022/05/28 02:14:50;;;;;;;7.20;2.37;;;12.70;68.30;;;15.49;52.08;101485.75;5039375;28;20593;-61
2022/05/28 02:17:22;;;;;;;6.60;1.90;;;12.70;68.50;;;15.52;52.34;101490.69;4919709;28;20222;-62
2022/05/28 02:19:49;;;;;;;7.13;2.17;;;12.70;68.50;;;15.52;52.29;101490.69;4741668;29;20234;-60
2022/05/28 02:25:04;;;;;;;7.10;2.13;;;12.60;68.50;;;15.51;52.37;101491.69;5167230;27;20643;-63
2022/05/28 02:27:33;;;;;;;9.10;2.10;;;12.70;68.90;;;15.52;52.44;101488.03;5109601;28;20210;-64
2022/05/28 02:30:05;;;;;;;6.80;2.20;;;12.70;69.00;;;15.51;52.31;101489.03;5092575;28;20613;-62
2022/05/28 02:32:31;;;;;;;4.40;2.33;;;12.70;68.90;;;15.52;52.53;101490.69;5115727;28;20197;-63
2022/05/28 02:34:58;;;;;;;8.87;2.33;;;12.70;68.90;;;15.50;52.58;101485.56;5091251;28;20271;-62
2022/05/28 02:37:29;;;;;;;6.60;2.53;;;12.60;68.90;;;15.49;52.10;101483.09;5077411;28;20547;-63
2022/05/28 02:39:57;;;;;;;7.80;2.10;;;12.60;68.80;;;15.48;52.40;101486.75;5013956;28;20207;-62
2022/05/28 02:43:41;;;;;;;10.40;2.80;;;12.60;68.60;;;15.46;52.34;101486.94;4903713;29;20516;-61
2022/05/28 02:48:46;;;;;;;11.07;2.70;;;12.60;68.50;;;15.43;52.40;101489.09;5165576;27;20883;-62
2022/05/28 02:51:19;;;;;;;7.20;2.53;;;12.60;68.60;;;15.45;52.33;101487.16;5129751;28;20199;-61
2022/05/28 02:53:47;;;;;;;10.50;2.63;;;12.60;68.30;;;15.46;52.18;101489.59;5107481;28;20193;-62
2022/05/28 02:56:15;;;;;;;8.43;2.47;;;12.60;68.20;;;15.49;52.15;101485.75;5055929;28;20226;-63
2022/05/28 02:58:44;;;;;;;8.20;2.30;;;12.60;68.20;;;15.53;51.92;101494.97;5026852;28;20275;-62
2022/05/28 03:01:25;;;;;;;7.40;2.00;;;12.60;68.40;;;15.54;51.88;101489.50;5033541;28;20201;-62
2022/05/28 03:03:53;;;;;;;7.50;1.83;;;12.60;68.40;;;15.59;52.01;101484.41;4937985;28;20632;-61
2022/05/28 03:06:20;;;;;;;6.03;1.97;;;12.60;68.50;;;15.65;51.98;101477.53;4787530;29;20224;-62
2022/05/28 03:08:46;;;;;;;6.90;2.30;;;12.70;68.60;;;15.69;51.86;101478.00;4712916;29;20622;-62
2022/05/28 03:13:54;;;;;;;6.40;2.07;;;12.70;68.40;;;15.73;51.77;101474.78;5158618;27;20320;-62
2022/05/28 03:16:23;;;;;;;7.20;2.70;;;12.80;68.30;;;15.73;51.77;101480.09;5110740;28;20560;-62
2022/05/28 03:18:50;;;;;;;10.70;2.70;;;12.80;68.20;;;15.73;51.64;101474.78;5082216;28;20535;-62
2022/05/28 03:21:17;;;;;;;6.37;2.30;;;12.80;67.90;;;15.72;51.46;101478.44;5065952;28;20261;-61
2022/05/28 03:23:47;;;;;;;9.67;2.87;;;12.80;67.90;;;15.72;51.58;101485.56;5061113;28;20247;-61
2022/05/28 03:26:19;;;;;;;8.53;2.00;;;12.80;67.80;;;15.69;51.20;101486.75;5099254;28;20227;-62
2022/05/28 03:28:47;;;;;;;6.30;2.17;;;12.80;67.30;;;15.70;51.45;101480.47;5117980;28;20549;-62
2022/05/28 03:31:16;;;;;;;7.80;2.37;;;12.80;67.30;;;15.71;51.09;101486.59;5102538;28;24525;-62
2022/05/28 03:33:55;;;;;;;7.47;2.23;;;12.80;67.20;;;15.75;50.82;101488.69;5172012;27;20633;-61
2022/05/28 03:36:23;;;;;;;11.27;2.53;;;12.80;67.00;;;15.76;50.64;101485.00;5132361;27;20214;-61
2022/05/28 03:38:50;;;;;;;8.97;2.60;;;12.70;66.40;;;15.76;50.65;101490.31;5145491;27;20817;-61
2022/05/28 03:41:20;;;;;;;8.53;2.80;;;12.80;66.60;;;15.77;50.62;101485.81;5170411;27;20198;-58
2022/05/28 03:43:47;;;;;;;5.70;2.17;;;12.80;66.30;;;15.77;50.60;101481.34;5153599;27;20200;-63
2022/05/28 03:46:25;;;;;;;9.20;2.47;;;12.80;66.00;;;15.75;50.02;101488.69;5122114;27;20214;-62
2022/05/28 03:49:01;;;;;;;7.67;2.30;;;12.80;65.70;;;15.76;50.02;101485.00;5026387;28;20202;-62
2022/05/28 03:51:30;;;;;;;6.83;2.40;;;12.80;65.50;;;15.76;49.93;101487.66;4927265;28;20217;-65
2022/05/28 03:53:55;;;;;;;10.20;2.10;;;12.80;65.50;;;15.78;50.22;101488.31;4768337;29;20737;-61
2022/05/28 03:58:35;;;;;;;5.43;2.30;;;12.80;65.50;;;15.75;50.10;101499.28;5168242;27;20619;-61
2022/05/28 04:01:02;;;;;;;8.83;2.63;;;12.80;65.50;;;15.78;50.41;101504.22;5150675;27;20201;-62
2022/05/28 04:03:30;;;;;;;10.17;2.70;;;12.80;65.90;;;15.83;50.37;101507.13;5147343;27;20514;-61
2022/05/28 04:05:57;;;;;;;7.20;2.50;;;12.80;66.10;;;15.86;50.63;101512.06;5114976;28;20268;-60
2022/05/28 04:08:27;;;;;;;6.30;2.63;;;12.90;66.60;;;15.91;50.79;101506.16;5087892;28;20223;-62
2022/05/28 04:10:53;;;;;;;13.00;2.53;;;12.90;66.70;;;15.98;50.56;101515.84;5060652;28;20192;-67
2022/05/28 04:13:20;;;;;;;7.17;2.47;;;13.00;66.90;;;16.07;50.50;101520.00;5083517;28;20192;-61
2022/05/28 04:15:46;;;;;;;7.80;2.87;;;13.10;66.80;;;16.13;50.46;101508.63;5079264;28;20212;-62
2022/05/28 04:20:50;;;;;;;9.37;2.67;;;13.10;66.60;;;16.22;50.30;101517.28;5171706;27;20653;-62
2022/05/28 04:23:18;;;;;;;6.73;2.43;;;13.20;66.50;;;16.20;50.24;101509.50;5131525;27;20191;-62
2022/05/28 04:25:45;;;;;;;9.37;3.30;;;13.20;66.60;;;16.20;50.17;101514.00;5132836;27;20519;-62
2022/05/28 04:28:12;;;;;;;8.53;2.87;;;13.20;66.50;;;16.17;50.27;101512.53;5146836;27;20190;-62
2022/05/28 04:30:40;;;;;;;8.83;2.30;;;13.20;66.40;;;16.11;50.46;101504.53;5133167;27;20250;-63
2022/05/28 04:33:08;;;;;;;6.73;2.50;;;13.10;66.50;;;16.10;50.59;101502.88;5110211;28;20267;-61
2022/05/28 04:35:35;;;;;;;8.60;2.60;;;13.10;66.60;;;16.11;50.54;101508.00;5072640;28;20213;-63
2022/05/28 04:41:46;;;;;;;9.13;2.80;;;13.20;66.70;;;16.08;50.62;101516.34;5162812;27;20627;-63
2022/05/28 04:44:13;;;;;;;7.80;2.60;;;13.20;66.80;;;16.07;50.76;101520.00;5150529;27;20215;-62
2022/05/28 04:46:44;;;;;;;7.63;2.63;;;13.20;66.90;;;16.08;50.38;101516.34;5132127;27;20252;-63
2022/05/28 04:49:12;;;;;;;8.07;2.80;;;13.10;66.80;;;16.11;50.70;101526.59;5134829;27;20229;-61
2022/05/28 04:51:38;;;;;;;9.97;2.90;;;13.20;67.10;;;16.16;50.92;101534.00;5085231;28;20206;-64
2022/05/28 04:54:07;;;;;;;11.43;4.30;;;13.20;67.20;;;16.19;51.09;101539.72;5017781;28;20218;-62
2022/05/28 04:56:34;;;;;;;11.13;3.20;;;13.20;67.60;;;16.23;51.27;101556.94;5058854;28;20550;-62
2022/05/28 04:59:01;;;;;;;6.00;2.30;;;13.20;68.30;;;16.25;51.44;101546.94;4943336;28;20581;-61
2022/05/28 05:01:28;;;;;;;9.93;3.17;;;13.20;69.20;;;16.23;52.04;101546.31;4725837;29;20236;-61
2022/05/28 05:06:32;;;;;;;10.80;2.90;;;13.20;69.60;;;16.30;52.31;101540.22;5152650;27;20655;-61
2022/05/28 05:08:59;;;;;;;6.30;2.53;;;13.20;70.20;;;16.30;51.80;101545.53;5113607;28;20203;-63
2022/05/28 05:11:25;;;;;;;11.77;2.87;;;13.20;69.50;;;16.28;51.55;101554.50;5125034;27;20332;-63
2022/05/28 05:13:52;;;;;;;5.80;2.10;;;13.20;69.00;;;16.26;51.66;101550.41;5126889;28;20585;-63
2022/05/28 05:16:19;;;;;;;4.73;2.10;;;13.20;68.80;;;16.27;51.79;101560.03;5050068;28;20699;-62
2022/05/28 05:18:47;;;;;;;10.93;3.80;;;13.20;69.40;;;16.28;52.53;101564.34;4970991;28;20212;-63
2022/05/28 05:21:14;;;;;;;7.47;3.30;;;13.20;70.10;;;16.31;52.48;101568.47;4981241;28;20197;-62
2022/05/28 05:24:25;;;;;;;6.90;2.83;;;13.20;70.50;;;16.28;52.86;101567.00;4981027;28;20282;-63
2022/05/28 05:28:13;;;;;;;8.17;3.50;;;13.30;70.90;;;16.37;53.21;101573.00;5171878;27;20625;-63
2022/05/28 05:30:40;;;;;;;5.90;2.90;;;13.30;71.00;;;16.45;53.01;101570.22;5131161;27;20190;-60
2022/05/28 05:33:07;;;;;;;6.60;2.70;;;13.40;71.00;;;16.52;53.12;101574.56;5141677;27;20218;-65
2022/05/28 05:35:33;;;;;;;8.40;3.03;;;13.40;71.20;;;16.59;53.15;101571.97;5137637;27;20214;-62
2022/05/28 05:38:05;;;;;;;16.20;2.90;;;13.50;71.10;;;16.66;52.81;101573.66;5109898;28;20224;-62
2022/05/28 05:40:33;;;;;;;13.00;3.10;;;13.50;70.70;;;16.77;52.26;101585.59;5035739;28;20233;-66
2022/05/28 05:42:59;;;;;;;10.37;2.47;;;13.60;70.80;;;16.88;52.28;101572.59;5045160;28;20540;-61
2022/05/28 05:45:27;;;;;;;11.50;3.47;;;13.60;70.60;;;17.02;51.68;101578.00;5049238;28;20228;-61
2022/05/28 05:47:54;;;;;;;12.30;2.83;;;13.70;70.30;;;17.12;51.82;101579.28;5027369;28;20222;-62
2022/05/28 05:52:59;;;;;;;9.47;3.30;;;13.90;70.20;;;17.28;51.58;101573.63;5171625;27;20637;-62
2022/05/28 05:55:26;;;;;;;10.47;2.77;;;14.00;69.80;;;17.28;51.16;101573.63;5140975;27;20635;-62
2022/05/28 05:57:52;;;;;;;11.60;3.80;;;14.10;69.40;;;17.24;51.28;101575.03;5126707;28;20253;-64
2022/05/28 06:00:19;;;;;;;15.07;3.57;;;14.10;68.90;;;17.19;50.81;101568.66;5097810;28;20204;-61
2022/05/28 06:02:46;;;;;;;7.73;3.03;;;14.10;68.20;;;17.13;51.09;101570.28;5120069;28;20512;-61
2022/05/28 06:05:12;;;;;;;9.33;3.73;;;14.10;68.10;;;17.10;50.92;101564.53;4976266;28;20320;-62
2022/05/28 06:07:39;;;;;;;7.07;2.73;;;14.10;68.50;;;17.13;51.13;101569.47;4947478;28;20558;-61
2022/05/28 06:12:45;;;;;;;8.90;3.07;;;14.10;68.70;;;17.24;51.04;101583.03;5171647;27;20931;-62
2022/05/28 06:15:12;;;;;;;10.80;3.20;;;14.20;68.20;;;17.26;50.56;101586.31;5142846;27;20214;-61
2022/05/28 06:17:39;;;;;;;12.33;2.97;;;14.10;67.70;;;17.27;50.49;101582.63;5109760;28;20221;-62
2022/05/28 06:20:10;;;;;;;11.43;2.97;;;14.20;67.70;;;17.32;50.56;101590.84;5132715;27;20199;-63
2022/05/28 06:22:37;;;;;;;7.03;2.77;;;14.20;67.80;;;17.39;49.91;101580.22;5119675;28;20559;-62
2022/05/28 06:25:05;;;;;;;11.73;3.40;;;14.20;67.10;;;17.49;50.07;101594.81;5105734;28;20219;-65
2022/05/28 06:27:32;;;;;;;11.90;2.83;;;14.30;67.10;;;17.64;49.71;101596.56;5084487;28;20196;-62
2022/05/28 06:30:01;;;;;;;7.80;2.63;;;14.40;66.80;;;17.71;49.28;101594.72;4942028;28;20691;-62
2022/05/28 06:32:27;;;;;;;7.57;2.57;;;14.40;66.80;;;17.74;49.40;101594.31;4843981;29;20255;-62
2022/05/28 06:37:30;;;;;;;6.70;2.97;;;14.40;66.60;;;17.89;49.07;101602.97;5172203;27;20630;-62
2022/05/28 06:39:57;;;;;;;11.53;3.03;;;14.50;66.40;;;17.91;48.96;101601.75;5142226;27;20198;-62
2022/05/28 06:42:23;;;;;;;6.73;2.70;;;14.60;66.00;;;17.89;49.08;101598.47;5112787;27;20210;-63
2022/05/28 06:44:50;;;;;;;6.20;2.40;;;14.60;66.20;;;17.90;49.13;101599.28;5101822;28;20216;-63
2022/05/28 06:47:17;;;;;;;7.50;3.57;;;14.70;66.40;;;17.98;49.02;101597.25;5096015;28;20193;-62
2022/05/28 06:51:01;;;;;;;7.90;2.87;;;14.80;66.60;;;18.05;48.90;101597.25;5056375;28;20198;-62
2022/05/28 06:52:31;;;;;;;17.63;3.13;;;14.80;66.20;;;18.06;48.65;101601.59;4967285;28;20402;-61
2022/05/28 06:54:59;;;;;;;11.43;2.90;;;14.80;65.40;;;18.05;48.77;101594.59;4821511;29;20222;-64
2022/05/28 06:57:25;;;;;;;9.40;2.77;;;14.90;65.70;;;18.09;49.03;101593.19;4816111;29;20233;-62
2022/05/28 07:02:25;;;;;;;6.30;2.93;;;14.90;65.80;;;18.16;48.53;101594.03;5171691;27;20387;-63
2022/05/28 07:04:52;;;;;;;12.03;3.40;;;15.00;64.70;;;18.19;48.05;101593.59;5145459;27;20216;-65
2022/05/28 07:07:18;;;;;;;10.17;3.60;;;15.00;64.70;;;18.34;47.93;101586.25;5129259;28;20237;-63
2022/05/28 07:09:45;;;;;;;10.17;3.47;;;15.10;64.50;;;18.57;47.49;101581.34;5137064;27;20525;-63
2022/05/28 07:12:11;;;;;;;13.60;3.70;;;15.20;64.30;;;18.81;47.02;101588.72;5112277;28;20196;-64
2022/05/28 07:14:38;;;;;;;13.30;3.43;;;15.30;64.00;;;18.99;46.41;101588.06;5036729;28;20284;-63
2022/05/28 07:17:05;;;;;;;7.23;2.80;;;15.50;63.00;;;19.04;45.81;101588.25;5023709;28;20276;-65
2022/05/28 07:19:35;;;;;;;10.00;3.87;;;15.60;62.00;;;19.03;45.31;101586.63;5028384;28;20232;-63
2022/05/28 07:22:02;;;;;;;9.47;3.43;;;15.60;61.00;;;19.06;45.40;101591.53;4944648;28;20308;-63
2022/05/28 07:27:06;;;;;;;11.97;3.70;;;15.70;61.10;;;19.35;44.88;101587.56;5171542;27;20630;-60
2022/05/28 07:29:33;;;;;;;14.80;3.17;;;15.90;60.40;;;19.40;44.60;101598.44;5144543;27;20203;-60
2022/05/28 07:31:59;;;;;;;12.03;4.20;;;16.00;60.20;;;19.34;44.61;101593.91;5141469;27;20200;-61
2022/05/28 07:34:26;;;;;;;11.70;4.03;;;16.00;60.40;;;19.21;45.38;101594.78;5106986;28;20519;-63
2022/05/28 07:36:53;;;;;;;7.97;3.27;;;16.00;61.30;;;19.00;46.52;101612.88;5092926;28;20202;-63
2022/05/28 07:39:22;;;;;;;5.53;2.90;;;15.80;63.00;;;18.81;47.53;101614.56;5026147;28;20320;-61
2022/05/28 07:41:48;;;;;;;8.97;3.70;;;15.70;63.80;;;18.71;48.08;101624.81;4984079;28;20710;-63
2022/05/28 07:44:16;;;;;;;8.47;3.50;;;15.60;64.40;;;18.68;47.98;101620.75;4981840;28;20200;-63
2022/05/28 07:46:42;;;;;;;9.93;4.30;;;15.60;64.30;;;18.78;47.94;101610.44;4912232;29;20249;-63
2022/05/28 07:51:46;;;;;;;10.97;3.60;;;15.60;64.80;;;19.20;46.98;101613.69;5213319;27;20623;-63
2022/05/28 07:54:16;;;;;;;6.97;2.97;;;15.80;63.90;;;19.32;46.64;101602.16;5192317;27;20197;-63
2022/05/28 07:56:42;;;;;;;10.37;3.60;;;15.80;63.60;;;19.36;46.03;101615.91;5175056;27;20238;-63
2022/05/28 07:59:09;;;;;;;11.87;4.57;;;15.90;63.00;;;19.47;46.33;101609.91;5170333;27;20242;-63
2022/05/28 08:01:39;;;;;;;9.03;3.53;;;16.10;63.00;;;19.62;45.19;101602.47;5129555;27;20208;-62
2022/05/28 08:04:09;;;;;;;12.40;3.47;;;16.10;60.30;;;19.78;44.44;101618.00;5103596;28;20575;-63
2022/05/28 08:06:37;;;;;;;11.67;3.90;;;16.30;60.60;;;19.94;43.82;101617.53;5074429;28;20231;-63
2022/05/28 08:10:35;;;;;;;8.70;2.97;;;16.40;59.50;;;19.90;43.49;101608.28;5087560;28;20221;-65
2022/05/28 08:15:43;;;;;;;15.20;3.10;;;16.50;59.30;;;21.28;42.48;101621.38;5160159;27;21098;-62
2022/05/28 08:18:12;;;;;;;8.57;3.63;;;17.00;59.30;;;22.63;39.72;101614.63;5109823;28;20196;-63
2022/05/28 08:23:24;;;;;;;14.07;3.70;;;18.10;56.30;;;25.45;34.18;101614.47;5067856;28;20192;-63
2022/05/28 08:25:51;;;;;;;8.77;3.10;;;19.00;54.00;;;26.46;30.64;101615.53;5052369;28;20219;-63
2022/05/28 08:28:20;;;;;;;11.13;3.47;;;19.70;48.90;;;27.33;29.47;101605.00;5038860;28;20224;-62
2022/05/28 08:30:48;;;;;;;10.27;3.43;;;20.50;47.20;;;28.35;27.91;101596.03;5065237;28;20199;-63
2022/05/28 08:33:15;;;;;;;7.07;2.60;;;21.20;45.30;;;29.12;26.87;101612.72;5049755;28;20214;-62
2022/05/28 08:38:22;;;;;;;11.10;3.67;;;22.40;41.80;;;27.89;27.44;101614.09;5211843;27;20968;-62
2022/05/28 08:40:56;;;;;;;7.60;2.60;;;22.60;40.70;;;26.76;27.95;101622.00;5173097;27;20193;-61
2022/05/28 08:43:26;;;;;;;8.10;2.60;;;22.10;39.30;;;25.73;29.19;101640.41;5171006;27;20205;-62
2022/05/28 08:45:53;;;;;;;9.73;3.20;;;21.70;39.40;;;24.77;30.48;101644.50;5137657;27;20692;-63
2022/05/28 08:48:29;;;;;;;7.83;3.03;;;21.20;41.10;;;23.90;32.86;101660.13;5092069;28;20197;-64
2022/05/28 08:51:03;;;;;;;7.63;3.27;;;20.60;44.10;;;23.04;33.64;101680.81;5091484;28;20277;-60
2022/05/28 08:53:39;;;;;;;8.17;4.40;;;19.80;45.00;;;22.28;34.66;101684.25;5035509;28;20241;-63
2022/05/28 08:56:05;;;;;;;4.60;2.67;;;19.30;45.80;;;21.71;36.02;101671.38;4967748;28;20234;-62
2022/05/28 09:01:17;;;;;;;5.03;2.57;;;18.70;47.20;;;20.98;37.06;101665.13;5213663;27;20631;-63
2022/05/28 09:03:54;;;;;;;8.93;2.80;;;18.00;49.20;;;20.92;37.37;101653.44;5173794;27;20190;-62
2022/05/28 09:06:27;;;;;;;8.13;3.47;;;17.60;49.10;;;21.18;36.38;101658.56;5166175;27;20217;-63
2022/05/28 09:08:56;;;;;;;7.63;3.07;;;17.60;49.50;;;21.82;36.00;101654.56;5135291;27;20313;-63
2022/05/28 09:11:33;;;;;;;6.57;3.10;;;17.60;49.80;;;22.95;34.68;101660.72;5106750;28;20192;-63
2022/05/28 09:14:22;;;;;;;7.77;2.90;;;18.00;50.30;;;24.54;31.65;101650.81;5013729;28;20625;-63
2022/05/28 09:16:55;;;;;;;6.03;3.23;;;18.50;47.40;;;26.17;28.75;101650.09;4889509;29;20216;-63
2022/05/28 09:19:21;;;;;;;8.87;3.73;;;19.20;45.70;;;27.48;27.10;101646.47;4740221;29;20239;-62
2022/05/28 09:24:24;;;;;;;8.47;3.47;;;20.00;44.50;;;29.89;23.90;101633.88;5170465;27;20311;-63
2022/05/28 09:27:04;;;;;;;15.77;3.90;;;21.80;40.30;;;30.78;24.37;101625.28;5107400;28;20467;-64
2022/05/28 09:29:57;;;;;;;9.50;3.53;;;22.70;39.80;;;31.24;22.97;101633.78;5051370;28;20194;-61
2022/05/28 09:32:35;;;;;;;8.47;3.13;;;23.30;37.40;;;30.45;23.11;101647.09;5014359;28;20203;-64
2022/05/28 09:35:12;;;;;;;14.13;3.20;;;23.70;36.50;;;29.35;24.40;101647.44;4965777;28;20299;-65
2022/05/28 09:37:53;;;;;;;6.37;3.40;;;23.60;36.20;;;29.33;23.52;101652.31;4905730;29;20228;-66
2022/05/28 09:40:33;;;;;;;9.07;3.03;;;23.40;34.40;;;30.10;23.01;101645.41;4644400;30;20343;-64
2022/05/28 09:43:00;;;;;;;5.60;3.30;;;23.50;34.40;;;30.42;22.89;101643.03;4505785;31;20240;-64
2022/05/28 09:48:17;;;;;;;6.50;2.60;;;23.80;34.90;;;30.64;22.03;101648.81;5160727;27;20578;-65
2022/05/28 09:50:44;;;;;;;6.93;2.87;;;24.30;32.60;;;29.63;22.49;101653.25;5111671;28;20251;-64
2022/05/28 09:56:13;;;;;;;6.20;3.07;;;23.70;32.20;;;26.90;25.44;101662.06;5085502;28;20219;-65
2022/05/28 09:58:41;;;;;;;8.07;3.03;;;23.00;34.10;;;25.86;28.03;101675.09;5078977;28;20225;-64
2022/05/28 10:01:12;;;;;;;6.70;2.87;;;22.30;36.70;;;25.01;30.30;101662.06;5073651;28;20274;-65
2022/05/28 10:06:33;;;;;;;7.87;2.53;;;21.20;42.10;;;24.23;32.62;101654.84;4755624;29;20321;-64
2022/05/28 10:11:47;;;;;;;6.73;2.40;;;20.70;44.00;;;24.51;31.65;101655.88;5152426;27;20650;-65
2022/05/28 10:14:16;;;;;;;6.50;2.40;;;20.30;44.10;;;25.13;30.72;101664.66;5116722;27;20252;-63
2022/05/28 10:16:46;;;;;;;10.97;3.20;;;20.20;43.90;;;26.39;28.88;101672.44;5128564;27;20231;-63
2022/05/28 10:19:26;;;;;;;8.70;2.40;;;20.40;43.40;;;27.66;27.10;101674.97;5100083;28;20197;-64
2022/05/28 10:21:57;;;;;;;9.10;3.03;;;20.80;41.80;;;27.99;25.36;101666.44;4975992;28;20222;-64
2022/05/28 10:24:27;;;;;;;5.93;2.60;;;21.20;39.70;;;27.39;26.41;101674.28;4980221;28;20234;-62
2022/05/28 10:26:58;;;;;;;6.77;3.17;;;21.40;39.90;;;26.53;27.69;101683.66;4906660;29;20221;-63
2022/05/28 10:32:16;;;;;;;6.53;2.90;;;21.50;40.30;;;24.79;32.66;101696.22;5161650;27;20723;-63
2022/05/28 10:34:43;;;;;;;9.63;3.80;;;21.00;45.00;;;23.98;34.26;101686.66;5118755;28;20227;-62
2022/05/28 10:37:13;;;;;;;4.37;2.67;;;20.40;47.00;;;23.23;35.47;101695.75;5077162;28;20196;-62
2022/05/28 10:39:42;;;;;;;10.17;2.80;;;19.90;47.70;;;22.55;37.65;101693.56;5099991;28;20341;-62
2022/05/28 10:42:12;;;;;;;7.83;3.20;;;19.40;50.30;;;21.96;38.42;101685.53;5056099;28;20191;-62
2022/05/28 10:44:42;;;;;;;9.00;3.90;;;18.90;51.60;;;21.61;39.00;101689.88;5023936;28;20682;-62
2022/05/28 10:47:41;;;;;;;10.67;3.57;;;18.60;52.40;;;21.49;40.38;101687.91;5047066;28;20582;-61
2022/05/28 10:50:07;;;;;;;8.13;3.40;;;18.30;54.10;;;22.23;39.54;101686.81;4911142;28;20221;-62
2022/05/28 10:55:19;;;;;;;8.10;2.97;;;18.20;55.30;;;25.60;35.71;101670.47;5163717;27;20972;-62
2022/05/28 10:58:23;;;;;;;9.07;3.50;;;18.80;57.10;;;27.05;33.18;101670.28;5113636;28;20243;-63
2022/05/28 11:01:01;;;;;;;8.17;3.80;;;19.40;55.40;;;27.24;31.10;101660.66;5090376;28;20666;-63
2022/05/28 11:04:18;;;;;;;8.30;3.27;;;19.90;52.20;;;26.58;31.45;101651.25;5083369;28;20189;-62
2022/05/28 11:07:42;;;;;;;8.40;3.37;;;20.20;50.50;;;25.68;32.37;101672.72;4918164;28;20293;-65
2022/05/28 11:10:42;;;;;;;7.57;3.40;;;20.40;49.10;;;24.83;31.35;101646.19;4761697;30;20282;-61
2022/05/28 11:13:24;;;;;;;10.73;2.80;;;20.30;45.10;;;24.32;31.53;101662.53;4615431;30;20701;-62
2022/05/28 11:16:01;;;;;;;6.57;2.93;;;20.20;44.00;;;23.88;31.71;101656.88;4514602;31;20573;-62
2022/05/28 11:21:22;;;;;;;9.83;3.20;;;20.10;43.50;;;23.42;31.63;101662.34;5171488;27;20817;-63
2022/05/28 11:24:17;;;;;;;10.83;2.97;;;19.90;42.60;;;23.16;31.04;101663.63;5095997;28;20200;-65
2022/05/28 11:26:55;;;;;;;9.17;3.17;;;19.70;41.00;;;22.90;30.69;101675.69;5016234;28;20227;-63
2022/05/28 11:29:47;;;;;;;7.03;2.70;;;19.50;41.10;;;22.60;30.72;101664.19;5002073;28;20543;-61
2022/05/28 11:32:19;;;;;;;9.27;2.93;;;19.30;39.90;;;22.50;30.60;101668.47;4976974;28;20366;-62
2022/05/28 11:34:54;;;;;;;11.43;3.27;;;19.20;39.70;;;22.46;30.52;101673.47;4991000;28;20303;-63
2022/05/28 11:37:29;;;;;;;6.90;2.73;;;19.10;39.70;;;22.46;30.41;101668.13;4907380;29;20278;-62
2022/05/28 11:39:55;;;;;;;5.47;2.10;;;19.00;39.30;;;22.57;30.39;101678.06;4854331;29;20653;-62
2022/05/28 11:42:21;;;;;;;8.60;2.77;;;19.00;39.80;;;22.74;30.58;101670.16;4781980;29;20201;-62
2022/05/28 11:44:59;;;;;;;5.97;2.67;;;19.10;40.20;;;22.86;29.89;101658.41;5166050;27;20405;-63
2022/05/28 11:47:40;;;;;;;8.50;2.93;;;19.10;39.60;;;22.94;30.49;101649.16;5107815;27;20636;-63
2022/05/28 11:53:15;;;;;;;7.13;2.57;;;19.30;38.40;;;22.84;29.35;101659.69;5062308;28;20193;-62
2022/05/28 11:55:46;;;;;;;10.30;3.10;;;19.40;38.50;;;22.83;30.16;101663.41;4982811;28;20228;-62
2022/05/28 11:58:18;;;;;;;4.77;2.10;;;19.40;39.40;;;22.85;30.53;101662.13;4881984;29;20290;-62